Time;durP1;ratioP1;P1;durP2;ratioP2;P2;SDS_P1;SDS_P2;PMS_P1;PMS_P2;Temp;Humidity;BMP_temperature;BMP_pressure;BME280_temperature;BME280_humidity;BME280_pressure;Samples;Min_cycle;Max_cycle;Signal;HPM_P1;HPM_P2
2021/09/23 00:00:07;;;;;;;;;21.25;18.25;;;;;18.55;43.77;101912.19;5014357;28;45493;-47
2021/09/23 00:05:14;;;;;;;;;18.25;15.25;;;;;18.45;43.54;101901.81;5010110;28;45494;-46
2021/09/23 00:07:41;;;;;;;;;17.25;15.00;;;;;18.40;43.84;101898.41;5001578;28;45337;-48
2021/09/23 00:10:10;;;;;;;;;21.50;17.50;;;;;18.38;43.68;101894.91;5012022;28;45401;-45
2021/09/23 00:12:35;;;;;;;;;16.75;16.75;;;;;18.34;44.03;101896.78;5016471;28;46421;-48
2021/09/23 00:15:02;;;;;;;;;18.50;16.50;;;;;18.29;43.92;101887.22;5001391;28;45729;-46
2021/09/23 00:17:27;;;;;;;;;20.00;18.00;;;;;18.26;43.71;101881.97;5001566;28;45239;-46
2021/09/23 00:19:53;;;;;;;;;23.50;19.75;;;;;18.24;43.93;101878.47;5001052;28;45498;-45
2021/09/23 00:22:18;;;;;;;;;15.75;15.75;;;;;18.19;44.17;101878.59;5001357;28;46186;-44
2021/09/23 00:24:43;;;;;;;;;19.25;18.00;;;;;18.14;44.27;101870.75;5013094;28;45354;-46
2021/09/23 00:27:09;;;;;;;;;16.00;16.00;;;;;18.12;44.30;101880.53;5014812;28;45317;-44
2021/09/23 00:29:35;;;;;;;;;18.00;16.75;;;;;18.06;44.32;101867.41;5001147;28;45348;-44
2021/09/23 00:32:00;;;;;;;;;21.25;16.00;;;;;18.05;44.62;101871.00;5003460;28;46151;-46
2021/09/23 00:34:26;;;;;;;;;19.25;18.50;;;;;18.01;44.52;101869.34;5000906;28;45368;-45
2021/09/23 00:36:51;;;;;;;;;16.50;15.25;;;;;17.96;44.17;101865.94;5001300;28;45233;-43
2021/09/23 00:39:21;;;;;;;;;18.75;17.50;;;;;17.96;44.47;101868.59;5001233;28;45489;-44
2021/09/23 00:41:46;;;;;;;;;16.50;16.50;;;;;17.91;44.53;101860.72;5000798;28;47025;-45
2021/09/23 00:44:19;;;;;;;;;20.00;20.00;;;;;17.89;44.60;101867.88;5001025;28;45305;-45
2021/09/23 00:46:46;;;;;;;;;20.75;19.50;;;;;17.84;44.63;101862.66;5001005;28;45243;-47
2021/09/23 00:49:12;;;;;;;;;18.75;18.75;;;;;17.83;44.53;101860.03;5000758;28;45303;-47
2021/09/23 00:51:38;;;;;;;;;18.25;17.50;;;;;17.79;44.67;101861.91;5000607;28;46133;-44
2021/09/23 00:54:05;;;;;;;;;18.75;16.00;;;;;17.77;44.86;101861.06;5000757;28;45447;-45
2021/09/23 00:56:30;;;;;;;;;25.00;20.75;;;;;17.74;44.79;101847.88;5000170;28;45330;-45
2021/09/23 00:58:57;;;;;;;;;19.25;18.25;;;;;17.71;44.84;101847.97;5004052;28;45363;-45
2021/09/23 01:01:23;;;;;;;;;19.00;16.50;;;;;17.69;44.82;101853.31;5014041;28;46998;-47
2021/09/23 01:03:48;;;;;;;;;25.00;22.25;;;;;17.64;45.15;101849.91;5000537;28;45310;-45
2021/09/23 01:06:14;;;;;;;;;19.50;18.50;;;;;17.63;45.04;101852.59;5000658;28;45163;-47
2021/09/23 01:08:39;;;;;;;;;22.25;17.50;;;;;17.59;45.01;101846.50;5000661;28;45563;-46
2021/09/23 01:11:05;;;;;;;;;16.25;14.25;;;;;17.57;44.97;101844.78;5013846;28;47026;-46
2021/09/23 01:13:30;;;;;;;;;22.00;14.75;;;;;17.54;45.11;101843.94;5000410;28;45248;-45
2021/09/23 01:15:56;;;;;;;;;19.00;18.75;;;;;17.52;45.04;101837.81;5009780;28;45291;-46
2021/09/23 01:18:22;;;;;;;;;19.75;18.25;;;;;17.49;45.26;101835.22;5013159;28;45480;-43
2021/09/23 01:20:48;;;;;;;;;18.75;16.75;;;;;17.47;45.25;101831.75;4999305;28;45464;-47
2021/09/23 01:23:13;;;;;;;;;14.00;14.00;;;;;17.44;45.11;101821.19;5011975;28;45436;-47
2021/09/23 01:25:39;;;;;;;;;17.25;17.25;;;;;17.42;45.12;101809.75;5014023;28;45335;-44
2021/09/23 01:28:05;;;;;;;;;22.75;16.00;;;;;17.40;45.22;101803.59;5000241;28;45471;-46
2021/09/23 01:30:31;;;;;;;;;22.50;21.00;;;;;17.37;45.28;101798.34;5000112;28;46255;-44
2021/09/23 01:32:56;;;;;;;;;19.00;15.75;;;;;17.34;45.33;101798.44;5001764;28;45318;-43
2021/09/23 01:35:22;;;;;;;;;23.25;18.50;;;;;17.34;45.37;101801.09;5000255;28;45289;-43
2021/09/23 01:37:48;;;;;;;;;20.75;15.75;;;;;17.29;45.59;101792.38;5000290;28;45199;-44
2021/09/23 01:40:13;;;;;;;;;20.75;19.50;;;;;17.29;45.65;101800.34;4999868;28;45354;-43
2021/09/23 01:42:42;;;;;;;;;19.25;19.25;;;;;17.28;45.62;101790.63;5000082;28;45191;-47
2021/09/23 01:45:08;;;;;;;;;24.25;20.00;;;;;17.24;45.71;101787.16;5000204;28;45302;-44
2021/09/23 01:47:33;;;;;;;;;21.75;18.75;;;;;17.22;45.82;101787.22;5000154;28;45322;-44
2021/09/23 01:49:59;;;;;;;;;21.00;18.25;;;;;17.20;45.72;101780.19;5011878;28;46190;-47
2021/09/23 01:52:25;;;;;;;;;21.25;20.50;;;;;17.18;45.98;101785.56;5012894;28;45430;-48
2021/09/23 01:54:51;;;;;;;;;19.75;16.25;;;;;17.15;46.08;101776.78;5000427;28;45424;-46
2021/09/23 01:57:17;;;;;;;;;25.25;21.00;;;;;17.14;45.73;101778.53;4999864;28;45458;-46
2021/09/23 01:59:42;;;;;;;;;22.50;19.75;;;;;17.09;46.05;101772.47;5009635;28;46049;-47
2021/09/23 02:02:07;;;;;;;;;21.50;18.75;;;;;17.10;45.86;101773.38;5006836;28;45300;-45
2021/09/23 02:04:33;;;;;;;;;22.25;20.50;;;;;17.07;46.05;101761.06;4999828;28;45524;-46
2021/09/23 02:06:58;;;;;;;;;24.50;23.25;;;;;17.05;46.09;101771.69;5002119;28;45464;-45
2021/09/23 02:09:23;;;;;;;;;21.25;16.75;;;;;17.03;45.93;101767.31;5009111;28;45284;-43
2021/09/23 02:11:49;;;;;;;;;26.25;24.75;;;;;16.99;46.26;101770.97;5023071;28;45304;-44
2021/09/23 02:14:14;;;;;;;;;19.25;18.00;;;;;16.99;46.01;101776.28;5003642;28;45241;-44
2021/09/23 02:16:40;;;;;;;;;19.75;17.75;;;;;16.97;46.29;101775.47;5003195;28;45251;-45
2021/09/23 02:19:05;;;;;;;;;22.50;20.00;;;;;16.95;46.13;101764.88;5003287;28;45292;-44
2021/09/23 02:21:30;;;;;;;;;22.75;21.00;;;;;16.94;46.18;101764.91;5003096;28;45281;-44
2021/09/23 02:23:56;;;;;;;;;23.25;19.75;;;;;16.93;46.57;101758.75;5010329;28;45234;-45
2021/09/23 02:26:21;;;;;;;;;21.25;19.50;;;;;16.90;46.19;101762.31;5009474;28;45443;-43
2021/09/23 02:28:47;;;;;;;;;25.25;21.25;;;;;16.88;46.42;101753.50;5002890;28;45434;-44
2021/09/23 02:31:12;;;;;;;;;21.25;16.75;;;;;16.85;46.22;101750.91;5003417;28;45290;-46
2021/09/23 02:33:37;;;;;;;;;20.75;20.75;;;;;16.84;46.43;101748.28;5005308;28;45321;-44
2021/09/23 02:36:03;;;;;;;;;20.25;18.25;;;;;16.83;46.68;101747.44;5003198;28;45361;-46
2021/09/23 02:38:29;;;;;;;;;28.25;24.75;;;;;16.81;46.55;101743.06;5014682;28;46950;-47
2021/09/23 02:40:55;;;;;;;;;20.75;20.75;;;;;16.79;46.35;101740.47;5014188;28;45283;-48
2021/09/23 02:43:21;;;;;;;;;23.75;20.75;;;;;16.77;46.71;101736.97;5004921;28;45305;-43
2021/09/23 02:45:46;;;;;;;;;23.25;22.25;;;;;16.77;46.78;101744.94;5002851;28;45444;-47
2021/09/23 02:48:12;;;;;;;;;22.50;19.25;;;;;16.73;46.79;101737.97;5002307;28;45303;-46
2021/09/23 02:50:37;;;;;;;;;22.00;20.75;;;;;16.72;47.01;101744.16;5012989;28;45281;-44
2021/09/23 02:53:02;;;;;;;;;21.25;19.50;;;;;16.70;46.67;101741.56;5016627;28;45354;-45
2021/09/23 02:55:28;;;;;;;;;19.25;18.00;;;;;16.69;46.76;101744.22;5002826;28;45341;-44
2021/09/23 02:57:53;;;;;;;;;21.50;21.00;;;;;16.65;47.02;101743.41;5002229;28;46046;-45
2021/09/23 03:00:20;;;;;;;;;22.75;22.25;;;;;16.66;47.05;101750.47;5017404;28;45508;-44
2021/09/23 03:02:45;;;;;;;;;20.00;19.50;;;;;16.65;47.03;101745.22;5004166;28;45282;-48
2021/09/23 03:05:11;;;;;;;;;22.75;20.75;;;;;16.63;47.14;101739.06;5009529;28;45459;-44
2021/09/23 03:07:36;;;;;;;;;18.00;17.75;;;;;16.61;47.05;101743.56;5002463;28;46026;-44
2021/09/23 03:10:03;;;;;;;;;21.75;20.00;;;;;16.58;47.13;101734.75;5013439;28;45315;-44
2021/09/23 03:12:29;;;;;;;;;22.25;20.50;;;;;16.57;46.86;101735.66;5017495;28;45370;-44
2021/09/23 03:14:54;;;;;;;;;21.00;20.75;;;;;16.55;47.05;101732.19;5002374;28;45400;-47
2021/09/23 03:17:19;;;;;;;;;22.00;20.00;;;;;16.54;47.21;101737.50;5018349;28;45863;-47
2021/09/23 03:19:45;;;;;;;;;24.75;21.50;;;;;16.52;47.13;101729.59;5010499;28;45247;-45
2021/09/23 03:22:10;;;;;;;;;21.00;19.25;;;;;16.50;47.19;101728.75;5002358;28;45495;-48
2021/09/23 03:24:35;;;;;;;;;26.75;22.00;;;;;16.49;47.47;101729.66;5002361;28;45465;-45
2021/09/23 03:27:01;;;;;;;;;22.00;22.00;;;;;16.49;47.26;101734.06;5001864;28;45487;-45
2021/09/23 03:29:27;;;;;;;;;26.25;22.75;;;;;16.45;47.59;101725.31;5020606;28;45259;-45
2021/09/23 03:31:52;;;;;;;;;23.75;21.75;;;;;16.45;47.46;101727.97;5004387;28;45488;-44
2021/09/23 03:34:17;;;;;;;;;21.25;20.00;;;;;16.44;47.23;101725.34;5002047;28;45424;-45
2021/09/23 03:36:43;;;;;;;;;20.25;18.50;;;;;16.41;47.52;101713.94;5001918;28;45287;-45
2021/09/23 03:39:08;;;;;;;;;23.50;21.00;;;;;16.41;47.56;101721.88;5002297;28;45225;-45
2021/09/23 03:41:34;;;;;;;;;24.25;20.50;;;;;16.40;47.56;101719.25;5002086;28;45187;-45
2021/09/23 03:43:59;;;;;;;;;23.00;21.50;;;;;16.38;47.41;101716.63;5002137;28;45218;-46
2021/09/23 03:46:25;;;;;;;;;26.75;23.50;;;;;16.37;47.52;101717.53;5001749;28;46148;-44
2021/09/23 03:48:51;;;;;;;;;24.25;21.50;;;;;16.37;47.60;101708.72;5001760;28;45370;-48
2021/09/23 03:51:16;;;;;;;;;20.00;20.00;;;;;16.33;47.73;101701.75;5002043;28;45480;-47
2021/09/23 03:53:42;;;;;;;;;21.00;19.50;;;;;16.32;47.69;101705.31;5001953;28;45305;-45
2021/09/23 03:56:12;;;;;;;;;22.50;21.75;;;;;16.31;47.72;101701.75;5016651;28;47282;-44
2021/09/23 03:58:39;;;;;;;;;21.50;19.75;;;;;16.29;47.89;101703.59;5012103;28;45319;-48
2021/09/23 04:01:05;;;;;;;;;23.50;19.75;;;;;16.28;48.10;101703.63;5016349;28;45449;-45
2021/09/23 04:03:31;;;;;;;;;22.50;22.50;;;;;16.25;47.62;101700.13;5001395;28;45393;-48
2021/09/23 04:05:56;;;;;;;;;22.75;21.00;;;;;16.24;48.07;101700.19;5013462;28;45366;-47
2021/09/23 04:08:22;;;;;;;;;29.75;27.25;;;;;16.22;47.92;101691.38;5012215;28;45254;-46
2021/09/23 04:10:47;;;;;;;;;24.50;23.00;;;;;16.20;48.27;101702.03;5017297;28;45346;-45
2021/09/23 04:13:13;;;;;;;;;23.50;21.25;;;;;16.19;47.87;101704.72;5001571;28;45321;-46
2021/09/23 04:15:38;;;;;;;;;22.75;22.75;;;;;16.17;48.18;101704.72;5001308;28;45250;-46
2021/09/23 04:18:04;;;;;;;;;22.50;20.25;;;;;16.15;47.94;101706.56;5001228;28;45306;-46
2021/09/23 04:20:30;;;;;;;;;23.50;21.00;;;;;16.13;48.07;101704.84;5001294;28;45320;-44
2021/09/23 04:22:55;;;;;;;;;24.00;20.00;;;;;16.10;47.92;101711.09;5001420;28;45334;-48
2021/09/23 04:25:20;;;;;;;;;18.25;17.25;;;;;16.07;48.33;101713.81;5001178;28;46330;-45
2021/09/23 04:27:46;;;;;;;;;20.50;18.50;;;;;16.04;48.18;101703.28;5001130;28;45343;-47
2021/09/23 04:30:12;;;;;;;;;26.75;21.75;;;;;16.02;48.46;101703.28;5001128;28;45310;-43
2021/09/23 04:32:38;;;;;;;;;18.75;16.50;;;;;15.99;48.79;101707.81;5002913;28;45403;-44
2021/09/23 04:35:03;;;;;;;;;23.25;21.75;;;;;15.98;48.19;101712.22;5001209;28;46187;-43
2021/09/23 04:37:29;;;;;;;;;24.50;21.25;;;;;15.96;48.16;101713.16;5008892;28;45279;-46
2021/09/23 04:39:54;;;;;;;;;22.50;22.50;;;;;15.96;48.16;101713.16;5018285;28;45345;-46
2021/09/23 04:42:19;;;;;;;;;26.25;23.50;;;;;15.94;48.30;101715.84;4999820;28;45335;-46
2021/09/23 04:44:45;;;;;;;;;21.25;18.50;;;;;15.92;48.79;101710.59;5016109;28;45289;-44
2021/09/23 04:47:11;;;;;;;;;23.00;22.00;;;;;15.91;48.25;101711.50;5001048;28;45221;-46
2021/09/23 04:49:37;;;;;;;;;19.00;18.00;;;;;15.86;48.39;101708.06;5000942;28;46537;-46
2021/09/23 04:52:03;;;;;;;;;22.50;21.00;;;;;15.88;48.57;101715.97;5019474;28;45278;-44
2021/09/23 04:54:28;;;;;;;;;24.50;23.50;;;;;15.86;48.83;101723.97;5021489;28;46256;-44
2021/09/23 04:56:54;;;;;;;;;21.50;20.00;;;;;15.85;48.69;101721.34;5000794;28;45390;-46
2021/09/23 04:59:19;;;;;;;;;23.75;21.25;;;;;15.83;48.89;101715.19;5007346;28;45321;-44
2021/09/23 05:01:44;;;;;;;;;22.50;20.75;;;;;15.81;48.80;101720.50;5010949;28;45269;-44
2021/09/23 05:04:10;;;;;;;;;25.00;23.75;;;;;15.80;48.54;101721.41;5000322;28;45353;-44
2021/09/23 05:06:35;;;;;;;;;24.75;23.25;;;;;15.80;48.42;101725.81;5000937;28;45270;-44
2021/09/23 05:09:01;;;;;;;;;24.25;22.00;;;;;15.75;48.50;101726.78;5003302;28;45249;-45
2021/09/23 05:11:27;;;;;;;;;22.75;20.50;;;;;15.76;48.86;101741.78;5020169;28;45446;-46
2021/09/23 05:13:53;;;;;;;;;25.50;21.25;;;;;15.75;48.85;101729.44;5003591;28;46120;-46
2021/09/23 05:16:18;;;;;;;;;24.00;22.25;;;;;15.74;48.51;101733.00;5020312;28;45321;-44
2021/09/23 05:18:44;;;;;;;;;26.00;24.00;;;;;15.73;48.79;101730.38;5020650;28;45372;-46
2021/09/23 05:21:10;;;;;;;;;23.00;22.25;;;;;15.70;48.72;101733.09;5000407;28;45532;-47
2021/09/23 05:23:35;;;;;;;;;20.75;20.75;;;;;15.72;48.69;101747.16;5000221;28;45309;-45
2021/09/23 05:26:01;;;;;;;;;24.00;23.00;;;;;15.68;48.83;101741.06;5000177;28;45260;-48
2021/09/23 05:28:26;;;;;;;;;24.50;22.25;;;;;15.65;49.10;101740.28;5000285;28;45550;-49
2021/09/23 05:30:52;;;;;;;;;25.00;22.75;;;;;15.67;49.10;101741.09;5008452;28;45357;-49
2021/09/23 05:33:17;;;;;;;;;28.75;26.25;;;;;15.64;48.71;101755.28;5004566;28;45824;-49
2021/09/23 05:35:42;;;;;;;;;29.75;23.00;;;;;15.65;48.71;101750.88;5003464;28;45338;-47
2021/09/23 05:38:08;;;;;;;;;21.75;19.00;;;;;15.65;48.92;101754.38;4998985;28;45411;-44
2021/09/23 05:40:33;;;;;;;;;26.00;23.50;;;;;15.63;49.19;101755.31;4998050;28;45385;-44
2021/09/23 05:42:59;;;;;;;;;23.00;21.75;;;;;15.63;48.82;101764.13;4998267;28;45985;-49
2021/09/23 05:45:25;;;;;;;;;24.75;21.50;;;;;15.64;49.27;101765.88;4999842;28;45400;-44
2021/09/23 05:47:50;;;;;;;;;30.00;25.50;;;;;15.64;48.87;101757.94;5013308;28;45338;-50
2021/09/23 05:50:15;;;;;;;;;28.75;22.25;;;;;15.64;49.02;101759.72;5011789;28;45290;-50
2021/09/23 05:52:41;;;;;;;;;27.25;26.50;;;;;15.63;48.90;101758.81;4999878;28;46090;-49
2021/09/23 05:55:07;;;;;;;;;26.25;25.50;;;;;15.60;49.43;101753.59;5000124;28;45539;-53
2021/09/23 05:57:34;;;;;;;;;29.75;25.75;;;;;15.62;49.17;101762.38;4999718;28;45291;-55
2021/09/23 06:00:14;;;;;;;;;26.50;22.25;;;;;15.62;49.47;101762.38;5011848;28;45346;-47
2021/09/23 06:02:41;;;;;;;;;30.00;24.25;;;;;15.62;49.57;101764.16;5002667;28;46055;-46
2021/09/23 06:05:07;;;;;;;;;31.25;23.50;;;;;15.59;49.18;101760.66;4999889;28;45348;-48
2021/09/23 06:07:33;;;;;;;;;23.50;20.75;;;;;15.62;49.29;101762.38;4999761;28;45303;-48
2021/09/23 06:09:58;;;;;;;;;25.00;21.50;;;;;15.63;49.33;101768.56;5010196;28;45286;-47
2021/09/23 06:12:23;;;;;;;;;24.50;22.50;;;;;15.63;49.50;101776.50;5002456;28;45220;-46
2021/09/23 06:14:49;;;;;;;;;24.75;21.00;;;;;15.60;49.36;101774.78;4999896;28;45242;-46
2021/09/23 06:17:15;;;;;;;;;23.50;20.50;;;;;15.62;49.32;101777.41;4999830;28;45227;-48
2021/09/23 06:19:40;;;;;;;;;27.75;23.00;;;;;15.60;49.51;101780.94;4998465;28;45269;-49
2021/09/23 06:22:06;;;;;;;;;25.50;23.25;;;;;15.58;49.22;101774.81;4999326;28;46316;-50
2021/09/23 06:24:32;;;;;;;;;29.00;25.00;;;;;15.61;49.68;101787.13;4999786;28;45426;-44
2021/09/23 06:26:57;;;;;;;;;24.75;24.75;;;;;15.63;49.57;101776.50;4999500;28;45311;-45
2021/09/23 06:29:23;;;;;;;;;23.50;21.75;;;;;15.64;49.65;101778.25;4999449;28;45554;-48
2021/09/23 06:31:48;;;;;;;;;28.00;25.00;;;;;15.65;49.78;101788.81;5000623;28;46181;-48
2021/09/23 06:34:13;;;;;;;;;28.25;24.00;;;;;15.68;49.27;101787.88;4999429;28;45316;-48
2021/09/23 06:36:39;;;;;;;;;26.00;24.50;;;;;15.67;49.47;101792.31;5028446;28;45875;-48
2021/09/23 06:39:05;;;;;;;;;45.50;36.25;;;;;15.70;49.84;101791.41;5010375;28;45333;-45
2021/09/23 06:41:31;;;;;;;;;30.50;29.25;;;;;15.72;49.65;101792.22;4999096;28;46125;-48
2021/09/23 06:43:56;;;;;;;;;26.00;25.00;;;;;15.73;49.71;101792.19;4999329;28;45318;-45
2021/09/23 06:46:22;;;;;;;;;34.00;31.00;;;;;15.74;49.75;101798.38;4999401;28;45547;-47
2021/09/23 06:48:50;;;;;;;;;18.75;15.25;;;;;15.75;49.42;101797.47;4999140;28;45326;-46
2021/09/23 06:51:16;;;;;;;;;30.00;28.00;;;;;15.74;49.81;101790.41;4999217;28;46030;-46
2021/09/23 06:53:41;;;;;;;;;29.50;24.50;;;;;15.79;49.66;101803.59;5000831;28;45363;-44
2021/09/23 06:56:07;;;;;;;;;26.75;26.50;;;;;15.80;49.99;101798.25;5002838;28;45287;-43
2021/09/23 06:58:32;;;;;;;;;29.75;27.00;;;;;15.82;49.60;101809.72;5002875;28;45389;-48
2021/09/23 07:00:57;;;;;;;;;32.00;26.75;;;;;15.84;49.73;101799.97;5019629;28;45297;-43
2021/09/23 07:03:23;;;;;;;;;28.00;26.00;;;;;15.87;49.94;101797.28;5002548;28;45332;-42
2021/09/23 07:05:48;;;;;;;;;31.75;28.25;;;;;15.87;49.80;101794.63;5002632;28;45337;-42
2021/09/23 07:08:17;;;;;;;;;30.75;26.75;;;;;15.90;49.79;101791.91;5001391;28;45425;-43
2021/09/23 07:10:42;;;;;;;;;26.50;26.00;;;;;15.93;49.97;101799.78;5016097;28;46080;-50
2021/09/23 07:13:08;;;;;;;;;29.25;25.75;;;;;15.97;50.05;101797.09;5002409;28;45273;-46
2021/09/23 07:15:33;;;;;;;;;30.50;26.00;;;;;15.99;50.22;101804.09;5002453;28;45226;-46
2021/09/23 07:17:59;;;;;;;;;28.25;26.50;;;;;15.99;49.58;101792.63;5002307;28;45258;-46
2021/09/23 07:20:24;;;;;;;;;28.50;25.50;;;;;16.05;50.21;101792.47;5013757;28;46971;-46
2021/09/23 07:22:49;;;;;;;;;28.75;26.00;;;;;16.08;50.22;101793.28;5002436;28;45356;-44
2021/09/23 07:25:15;;;;;;;;;28.00;26.75;;;;;16.11;50.08;101789.72;5002349;28;45271;-45
2021/09/23 07:27:40;;;;;;;;;23.75;21.25;;;;;16.15;49.75;101783.47;5021549;28;45245;-46
2021/09/23 07:30:06;;;;;;;;;25.75;23.75;;;;;16.17;50.02;101783.41;5016707;28;46140;-45
2021/09/23 07:32:32;;;;;;;;;32.50;27.50;;;;;16.21;50.02;101783.34;5011734;28;45495;-46
2021/09/23 07:34:57;;;;;;;;;26.50;25.75;;;;;16.25;49.96;101785.00;5002110;28;45323;-47
2021/09/23 07:37:23;;;;;;;;;24.00;22.25;;;;;16.28;49.82;101781.41;5002260;28;45241;-43
2021/09/23 07:39:48;;;;;;;;;28.00;25.00;;;;;16.32;49.99;101784.88;5017207;28;48393;-43
2021/09/23 07:42:16;;;;;;;;;26.75;26.75;;;;;16.35;49.74;101771.53;5033464;28;45321;-44
2021/09/23 07:44:42;;;;;;;;;24.50;23.25;;;;;16.38;49.93;101771.47;5006396;28;45167;-43
2021/09/23 07:47:08;;;;;;;;;29.75;26.25;;;;;16.45;49.95;101772.22;5001815;28;45321;-47
2021/09/23 07:49:33;;;;;;;;;29.00;25.00;;;;;16.48;49.76;101770.38;5001400;28;46192;-43
2021/09/23 07:52:00;;;;;;;;;32.75;28.75;;;;;16.52;49.71;101772.03;5001892;28;45215;-45
2021/09/23 07:54:25;;;;;;;;;24.25;22.00;;;;;16.56;50.11;101773.72;5001915;28;45337;-47
2021/09/23 07:56:50;;;;;;;;;25.50;23.75;;;;;16.62;49.84;101774.50;5001713;28;45398;-45
2021/09/23 07:59:16;;;;;;;;;33.50;30.00;;;;;16.66;50.01;101774.38;5007696;28;46239;-43
2021/09/23 08:01:41;;;;;;;;;28.00;26.25;;;;;16.72;49.86;101783.97;5012350;28;45278;-45
2021/09/23 08:04:07;;;;;;;;;23.75;23.25;;;;;16.76;50.02;101769.72;5001231;28;45515;-46
2021/09/23 08:06:32;;;;;;;;;24.25;23.25;;;;;16.82;49.91;101774.03;5001832;28;45357;-46
2021/09/23 08:08:58;;;;;;;;;22.00;21.75;;;;;16.87;49.68;101778.28;5003547;28;46069;-45
2021/09/23 08:11:24;;;;;;;;;24.00;23.75;;;;;16.93;49.88;101774.66;5012482;28;45416;-46
2021/09/23 08:13:50;;;;;;;;;25.25;23.75;;;;;16.97;49.59;101778.13;5006250;28;45271;-44
2021/09/23 08:16:16;;;;;;;;;24.75;24.00;;;;;17.05;49.78;101778.78;5032352;28;45258;-45
2021/09/23 08:18:41;;;;;;;;;24.50;22.25;;;;;17.13;49.83;101778.59;5005248;28;46977;-45
2021/09/23 08:21:07;;;;;;;;;25.00;22.75;;;;;17.12;49.77;101759.16;5001427;28;45336;-45
2021/09/23 08:23:32;;;;;;;;;25.25;21.50;;;;;17.26;49.77;101764.09;5001489;28;45602;-45
2021/09/23 08:25:57;;;;;;;;;26.50;23.25;;;;;17.33;49.59;101767.47;5019244;28;45213;-44
2021/09/23 08:28:26;;;;;;;;;29.75;25.25;;;;;17.41;49.68;101769.91;5022691;28;46211;-46
2021/09/23 08:30:51;;;;;;;;;25.75;22.00;;;;;17.48;49.59;101768.84;5001127;28;45256;-44
2021/09/23 08:33:17;;;;;;;;;29.25;28.00;;;;;17.54;49.84;101771.34;5002420;28;45309;-47
2021/09/23 08:35:42;;;;;;;;;101.67;94.00;;;;;17.62;49.89;101765.81;5001331;28;45242;-47
2021/09/23 08:38:08;;;;;;;;;138.25;133.50;;;;;17.70;49.70;101769.13;5001066;28;45463;-45
2021/09/23 08:40:33;;;;;;;;;27.50;25.50;;;;;17.78;49.77;101769.78;5001276;28;45390;-44
2021/09/23 08:43:00;;;;;;;;;27.50;27.00;;;;;17.86;49.57;101767.78;5027559;28;45342;-45
2021/09/23 08:45:25;;;;;;;;;25.50;24.00;;;;;17.94;49.45;101756.97;5013185;28;45252;-44
2021/09/23 08:47:51;;;;;;;;;79.00;66.67;;;;;18.04;49.54;101754.91;5028338;28;45350;-42
2021/09/23 08:50:18;;;;;;;;;28.75;25.75;;;;;18.12;49.44;101758.19;5012678;28;45291;-43
2021/09/23 08:52:44;;;;;;;;;25.50;22.75;;;;;18.21;49.51;101764.16;5001033;28;45310;-45
2021/09/23 08:55:25;;;;;;;;;23.25;22.50;;;;;18.31;49.53;101770.94;5004557;28;45366;-45
2021/09/23 08:57:50;;;;;;;;;24.75;19.50;;;;;18.39;49.43;101760.97;5016180;28;46580;-44
2021/09/23 09:00:16;;;;;;;;;25.00;23.00;;;;;18.49;49.28;101766.88;5008740;28;45309;-45
2021/09/23 09:02:42;;;;;;;;;27.75;24.50;;;;;18.57;49.47;101759.50;5000752;28;45238;-42
2021/09/23 09:05:17;;;;;;;;;27.00;25.00;;;;;18.70;49.32;101765.28;5000860;28;45242;-48
2021/09/23 09:07:42;;;;;;;;;25.00;23.75;;;;;18.79;49.55;101765.03;5032374;28;47008;-43
2021/09/23 09:10:09;;;;;;;;;19.50;19.50;;;;;18.92;49.28;101769.97;5020133;28;45200;-46
2021/09/23 09:12:36;;;;;;;;;25.00;25.00;;;;;19.03;49.52;101780.25;5033615;28;45510;-45
2021/09/23 09:15:03;;;;;;;;;22.75;22.25;;;;;19.12;49.28;101770.19;5032863;28;45244;-46
2021/09/23 09:17:37;;;;;;;;;31.25;27.25;;;;;19.25;49.44;101769.75;5013770;28;47497;-44
2021/09/23 09:20:06;;;;;;;;;27.50;23.00;;;;;19.36;49.29;101775.59;5000265;28;45390;-44
2021/09/23 09:22:33;;;;;;;;;24.75;22.75;;;;;19.48;49.24;101771.63;5000730;28;45639;-43
2021/09/23 09:25:10;;;;;;;;;25.50;25.50;;;;;19.63;49.40;101765.75;5013382;28;45400;-48
2021/09/23 09:27:37;;;;;;;;;20.50;18.25;;;;;19.74;49.37;101762.69;5029179;28;45265;-44
2021/09/23 09:30:11;;;;;;;;;26.00;22.75;;;;;19.88;48.72;101764.00;5010908;28;45859;-46
2021/09/23 09:32:48;;;;;;;;;25.50;23.00;;;;;20.00;48.70;101774.22;5000143;28;45360;-44
2021/09/23 09:35:19;;;;;;;;;30.00;25.75;;;;;20.12;49.13;101768.44;5000132;28;45528;-46
2021/09/23 09:37:48;;;;;;;;;27.00;22.50;;;;;20.22;48.52;101768.91;5000100;28;45235;-42
2021/09/23 09:40:17;;;;;;;;;29.50;23.00;;;;;20.33;48.94;101760.50;5031363;28;45309;-46
2021/09/23 09:42:45;;;;;;;;;26.00;21.75;;;;;20.44;48.35;101760.97;5015414;28;45464;-44
2021/09/23 09:45:23;;;;;;;;;22.75;21.50;;;;;20.56;48.77;101756.91;5000038;28;45410;-47
2021/09/23 09:47:52;;;;;;;;;24.25;22.25;;;;;20.67;48.53;101759.16;4999727;28;45458;-46
2021/09/23 09:50:24;;;;;;;;;22.75;20.75;;;;;20.78;48.11;101759.63;4999905;28;45275;-46
2021/09/23 09:52:57;;;;;;;;;15.50;14.50;;;;;20.91;48.35;101753.78;5000025;28;45309;-47
2021/09/23 09:55:28;;;;;;;;;14.50;13.00;;;;;21.02;47.38;101750.63;5000087;28;45465;-47
2021/09/23 09:57:53;;;;;;;;;16.25;14.75;;;;;21.10;47.32;101745.84;4999620;28;46274;-45
2021/09/23 10:00:20;;;;;;;;;13.75;13.25;;;;;21.18;47.73;101746.41;5014761;28;45463;-48
2021/09/23 10:02:46;;;;;;;;;12.50;12.50;;;;;21.24;47.12;101731.91;5002440;28;45294;-47
2021/09/23 10:05:13;;;;;;;;;19.00;17.75;;;;;21.37;47.30;101745.59;4999922;28;45326;-47
2021/09/23 10:07:40;;;;;;;;;13.00;12.25;;;;;21.44;47.14;101744.38;4999667;28;45337;-45
2021/09/23 10:10:07;;;;;;;;;18.50;15.00;;;;;21.51;46.70;101740.50;5011230;28;45338;-45
2021/09/23 10:12:35;;;;;;;;;17.00;15.00;;;;;21.62;46.73;101745.41;5013422;28;45299;-42
2021/09/23 10:15:01;;;;;;;;;16.00;15.00;;;;;21.72;46.65;101735.16;5011595;28;45236;-42
2021/09/23 10:17:30;;;;;;;;;14.00;12.00;;;;;21.83;46.66;101724.84;5000602;28;45244;-43
2021/09/23 10:20:00;;;;;;;;;11.75;11.75;;;;;21.96;46.30;101730.50;5007705;28;45490;-45
2021/09/23 10:22:27;;;;;;;;;17.50;16.00;;;;;22.08;46.47;101731.72;5006737;28;45211;-43
2021/09/23 10:24:54;;;;;;;;;12.25;12.25;;;;;22.20;46.48;101740.97;5018011;28;45544;-44
2021/09/23 10:30:06;;;;;;;;;13.00;10.50;;;;;22.41;45.86;101731.06;5002887;28;45325;-45
2021/09/23 10:32:31;;;;;;;;;15.50;13.50;;;;;22.52;45.88;101731.41;5004568;28;45259;-45
2021/09/23 10:34:57;;;;;;;;;13.75;13.75;;;;;22.63;45.88;101730.91;5002992;28;45234;-43
2021/09/23 10:37:23;;;;;;;;;19.75;16.25;;;;;22.75;46.30;101724.06;5003046;28;47171;-44
2021/09/23 10:39:49;;;;;;;;;15.25;13.75;;;;;22.88;45.86;101730.53;5002882;28;45471;-46
2021/09/23 10:42:20;;;;;;;;;13.00;12.75;;;;;23.00;45.61;101721.00;5002946;28;45255;-44
2021/09/23 10:44:47;;;;;;;;;14.50;14.50;;;;;23.16;45.58;101722.94;5002925;28;45473;-41
2021/09/23 10:47:13;;;;;;;;;17.50;14.75;;;;;23.30;45.52;101728.44;5002607;28;46328;-42
2021/09/23 10:49:40;;;;;;;;;14.25;14.00;;;;;23.43;45.17;101723.28;5002593;28;45332;-48
2021/09/23 10:52:07;;;;;;;;;12.50;12.25;;;;;23.59;45.22;101714.44;5002987;28;45297;-43
2021/09/23 10:54:33;;;;;;;;;13.00;11.50;;;;;23.73;45.14;101717.22;5002797;28;45372;-48
2021/09/23 10:56:59;;;;;;;;;15.00;12.50;;;;;23.89;45.19;101711.88;5002330;28;45756;-44
2021/09/23 10:59:26;;;;;;;;;13.00;13.00;;;;;24.05;45.36;101697.63;5010010;28;45351;-47
2021/09/23 11:01:51;;;;;;;;;16.25;14.25;;;;;24.25;44.65;101701.88;5011880;28;45266;-43
2021/09/23 11:04:17;;;;;;;;;15.50;14.50;;;;;24.36;44.81;101683.34;5002257;28;45509;-44
2021/09/23 11:06:45;;;;;;;;;19.25;15.25;;;;;24.64;44.56;101687.09;5002503;28;46511;-46
2021/09/23 11:09:20;;;;;;;;;15.75;13.25;;;;;24.87;44.63;101690.25;5006386;28;45428;-44